Huntington Tri-State Airport

Airport
ICAO code: 
KHTS
Summary
ICAO Region: 
NAM
Territory: 
Location: 
Huntington, West Virginia,
Elevation: 
828 ft
Coordinates: 
Aerial View: 
38° 22' 6.398" N, 82° 33' 22.957" W
Airport WX: 
Cumulonimbus
Metar
Observation
KHTS 040751Z 01005KT 10SM CLR 05/01 A3001 RMK AO2 SLP163 T00500006 $
Station
Huntington, Tri-State Airport
Date/Time
2021-12-04 07:51:00
Wind direction
10°
Wind speed
05 kts
Lowest cloud amount
n/a
Temperature
5°C
Dew point
0.6°C
Humidity
73%
Weather condition
n/a

Description

Tri-State Airport, also known as Milton J. Ferguson Field, is a public use airport located in Wayne County, 5 km southwest of Huntington, West Virginia.

Climatology

Humid “subtropical” climate (Köppen climate classification Cfa) - characterized by hot, humid summers and cool winters. Significant amounts of precipitation occur in all seasons in most areas. Winter rainfall (and sometimes snowfall) is associated with large storms that the westerlies steer from west to east. Most summer rainfall occurs during thunderstorms.

Runways

Designator Length Width Surface Rops
3/21 917 18 ASP Yes/Yes
12/30 1984 46 ASP Yes/Yes
Airport map: 
Aerial View: 

SKYbrary Partners:

Safety knowledge contributed by: